createdAt,value
2019-01-24T00:00:45.348Z,96391.00
2019-01-24T00:03:14.718Z,96386.00
2019-01-24T00:05:44.078Z,96399.00
2019-01-24T00:08:13.469Z,96384.00
2019-01-24T00:10:42.819Z,96393.00
2019-01-24T00:13:12.163Z,96398.00
2019-01-24T00:15:41.860Z,96394.00
2019-01-24T00:18:11.240Z,96351.00
2019-01-24T00:20:40.594Z,96412.00
2019-01-24T00:23:10.319Z,96412.00
2019-01-24T00:25:39.744Z,96408.00
2019-01-24T00:28:09.100Z,96416.00
2019-01-24T00:30:38.499Z,96415.00
2019-01-24T00:33:07.942Z,96416.00
2019-01-24T00:35:37.339Z,96424.00
2019-01-24T00:38:07.452Z,96436.00
2019-01-24T00:40:36.852Z,96441.00
2019-01-24T00:43:06.237Z,96427.00
2019-01-24T00:45:35.705Z,96428.00
2019-01-24T00:48:05.493Z,96429.00
2019-01-24T00:50:34.869Z,96427.00
2019-01-24T00:53:04.396Z,96430.00
2019-01-24T00:55:33.847Z,96436.00
2019-01-24T00:58:03.219Z,96439.00
2019-01-24T01:00:32.881Z,96436.00
2019-01-24T01:03:02.237Z,96423.00
2019-01-24T01:05:32.050Z,96439.00
2019-01-24T01:08:01.439Z,96452.00
2019-01-24T01:10:30.798Z,96443.00
2019-01-24T01:13:00.163Z,96439.00
2019-01-24T01:15:29.647Z,96445.00
2019-01-24T01:17:59.036Z,96450.00
2019-01-24T01:20:28.422Z,96450.00
2019-01-24T01:22:58.177Z,96460.00
2019-01-24T01:25:28.126Z,96461.00
2019-01-24T01:27:57.516Z,96464.00
2019-01-24T01:30:26.980Z,96473.00
2019-01-24T01:32:56.337Z,96466.00
2019-01-24T01:35:25.725Z,96467.00
2019-01-24T01:37:55.095Z,96477.00
2019-01-24T01:40:24.535Z,96477.00
2019-01-24T01:42:53.917Z,96476.00
2019-01-24T01:45:24.184Z,96486.00
2019-01-24T01:47:53.619Z,96488.00
2019-01-24T01:50:24.993Z,96478.00
2019-01-24T01:52:54.374Z,96486.00
2019-01-24T02:14:46.726Z,96518.00
2019-01-24T02:17:16.090Z,96516.00
2019-01-24T02:19:45.444Z,96527.00
2019-01-24T02:22:14.847Z,96521.00
2019-01-24T02:24:44.196Z,96522.00
2019-01-24T02:27:14.178Z,96522.00
2019-01-24T02:29:43.562Z,96523.00
2019-01-24T02:32:12.983Z,96504.00
2019-01-24T02:34:42.357Z,96507.00
2019-01-24T02:37:12.517Z,96504.00
2019-01-24T02:39:41.886Z,96508.00
2019-01-24T02:42:11.258Z,96502.00
2019-01-24T02:44:40.636Z,96509.00
2019-01-24T02:47:10.009Z,96501.00
2019-01-24T02:49:39.361Z,96510.00
2019-01-24T02:52:08.739Z,96520.00
2019-01-24T02:54:38.100Z,96505.00
2019-01-24T02:57:07.454Z,96511.00
2019-01-24T02:59:36.869Z,96501.00
2019-01-24T03:02:06.308Z,96513.00
2019-01-24T03:04:35.705Z,96514.00
2019-01-24T03:07:05.155Z,96508.00
2019-01-24T03:09:34.528Z,96497.00
2019-01-24T03:12:03.900Z,96505.00
2019-01-24T03:14:33.279Z,96502.00
2019-01-24T03:17:02.648Z,96510.00
2019-01-24T03:19:32.002Z,96507.00
2019-01-24T03:22:01.422Z,96508.00
2019-01-24T03:24:30.780Z,96513.00
2019-01-24T03:27:00.139Z,96514.00
2019-01-24T03:29:30.067Z,96523.00
2019-01-24T03:31:59.412Z,96522.00
2019-01-24T03:34:28.777Z,96522.00
2019-01-24T03:36:58.144Z,96532.00
2019-01-24T03:39:27.503Z,96543.00
2019-01-24T03:41:56.859Z,96537.00
2019-01-24T03:44:26.706Z,96538.00
2019-01-24T03:46:56.072Z,96541.00
2019-01-24T03:49:25.442Z,96549.00
2019-01-24T03:51:54.812Z,96532.00
2019-01-24T03:54:24.175Z,96545.00
2019-01-24T03:56:53.538Z,96544.00
2019-01-24T03:59:22.896Z,96533.00
2019-01-24T04:01:52.259Z,96541.00
2019-01-24T04:04:21.671Z,96533.00
2019-01-24T04:06:51.065Z,96538.00
2019-01-24T04:09:20.450Z,96542.00
2019-01-24T04:11:49.809Z,96541.00
2019-01-24T04:14:19.215Z,96530.00
2019-01-24T04:16:48.576Z,96533.00
2019-01-24T04:19:17.963Z,96540.00
2019-01-24T04:21:47.404Z,96539.00
2019-01-24T04:24:16.765Z,96533.00
2019-01-24T04:26:46.155Z,96553.00
2019-01-24T04:29:15.912Z,96531.00
2019-01-24T04:31:45.644Z,96546.00
2019-01-24T04:34:15.023Z,96537.00
2019-01-24T04:36:44.379Z,96567.00
2019-01-24T04:39:13.735Z,96552.00
2019-01-24T04:41:43.115Z,96560.00
2019-01-24T04:44:12.510Z,96551.00
2019-01-24T04:46:41.871Z,96559.00
2019-01-24T04:49:11.231Z,96559.00
2019-01-24T04:51:41.022Z,96552.00
2019-01-24T04:54:10.383Z,96567.00
2019-01-24T04:56:39.739Z,96550.00
2019-01-24T04:59:09.109Z,96554.00
2019-01-24T05:01:38.479Z,96563.00
2019-01-24T05:04:07.912Z,96556.00
2019-01-24T05:06:37.295Z,96563.00
2019-01-24T05:09:08.287Z,96582.00
2019-01-24T05:11:37.643Z,96581.00
2019-01-24T05:14:07.123Z,96581.00
2019-01-24T05:16:36.522Z,96568.00
2019-01-24T05:19:05.890Z,96583.00
2019-01-24T05:21:35.264Z,96600.00
2019-01-24T05:24:04.772Z,96596.00
2019-01-24T05:26:34.123Z,96588.00
2019-01-24T05:29:03.504Z,96588.00
2019-01-24T05:31:32.866Z,96595.00
2019-01-24T05:34:03.413Z,96595.00
2019-01-24T05:36:33.244Z,96598.00
2019-01-24T05:39:04.281Z,96592.00
2019-01-24T05:41:33.635Z,96600.00
2019-01-24T05:44:03.036Z,96610.00
2019-01-24T05:46:32.405Z,96605.00
2019-01-24T05:49:01.763Z,96608.00
2019-01-24T05:51:31.139Z,96617.00
2019-01-24T05:54:00.523Z,96621.00
2019-01-24T05:56:29.921Z,96616.00
2019-01-24T05:58:59.335Z,96614.00
2019-01-24T06:01:29.066Z,96616.00
2019-01-24T06:03:58.426Z,96620.00
2019-01-24T06:06:27.809Z,96630.00
2019-01-24T06:08:57.168Z,96641.00
2019-01-24T06:11:26.535Z,96643.00
2019-01-24T06:13:55.920Z,96639.00
2019-01-24T06:16:25.274Z,96647.00
2019-01-24T06:18:54.694Z,96640.00
2019-01-24T06:21:25.244Z,96654.00
2019-01-24T06:23:54.609Z,96646.00
2019-01-24T06:26:23.971Z,96647.00
2019-01-24T06:28:53.347Z,96647.00
2019-01-24T06:31:22.708Z,96648.00
2019-01-24T06:33:52.070Z,96664.00
2019-01-24T06:36:21.758Z,96645.00
2019-01-24T06:38:51.193Z,96652.00
2019-01-24T06:41:20.549Z,96663.00
2019-01-24T06:43:50.200Z,96654.00
2019-01-24T06:46:19.559Z,96672.00
2019-01-24T06:48:48.894Z,96662.00
2019-01-24T06:51:18.273Z,96673.00
2019-01-24T06:53:47.624Z,96662.00
2019-01-24T06:56:17.007Z,96656.00
2019-01-24T06:58:46.370Z,96657.00
2019-01-24T07:01:15.729Z,96668.00
2019-01-24T07:03:45.074Z,96660.00
2019-01-24T07:06:14.863Z,96676.00
2019-01-24T07:08:44.194Z,96670.00
2019-01-24T07:11:13.554Z,96667.00
2019-01-24T07:13:42.926Z,96673.00
2019-01-24T07:16:12.274Z,96667.00
2019-01-24T07:18:41.620Z,96678.00
2019-01-24T07:21:10.990Z,96679.00
2019-01-24T07:23:40.333Z,96681.00
2019-01-24T07:26:09.694Z,96688.00
2019-01-24T07:28:39.084Z,96682.00
2019-01-24T07:31:08.442Z,96694.00
2019-01-24T07:33:37.828Z,96708.00
2019-01-24T07:36:07.208Z,96705.00
2019-01-24T07:38:37.702Z,96696.00
2019-01-24T07:41:09.652Z,96703.00
2019-01-24T07:43:39.027Z,96709.00
2019-01-24T07:46:08.449Z,96698.00
2019-01-24T07:48:37.805Z,96707.00
2019-01-24T07:51:07.646Z,96725.00
2019-01-24T07:53:37.014Z,96721.00
2019-01-24T07:56:06.845Z,96729.00
2019-01-24T07:58:36.232Z,96727.00
2019-01-24T08:01:05.955Z,96718.00
2019-01-24T08:03:35.325Z,96717.00
2019-01-24T08:06:09.122Z,96723.00
2019-01-24T08:08:37.078Z,96728.00
2019-01-24T08:11:06.447Z,96727.00
2019-01-24T08:13:35.857Z,96726.00
2019-01-24T08:16:05.336Z,96733.00
2019-01-24T08:18:34.778Z,96740.00
2019-01-24T08:21:04.137Z,96745.00
2019-01-24T08:23:33.501Z,96752.00
2019-01-24T08:26:02.873Z,96747.00
2019-01-24T08:28:32.269Z,96753.00
2019-01-24T08:31:01.655Z,96767.00
2019-01-24T08:33:31.037Z,96770.00
2019-01-24T08:36:20.531Z,96760.00
2019-01-24T08:38:49.890Z,96764.00
2019-01-24T08:41:19.667Z,96770.00
2019-01-24T08:43:49.069Z,96750.00
2019-01-24T08:46:18.436Z,96772.00
2019-01-24T08:48:47.817Z,96755.00
2019-01-24T08:51:17.200Z,96770.00
2019-01-24T08:53:46.571Z,96767.00
2019-01-24T08:56:15.944Z,96772.00
2019-01-24T08:58:45.331Z,96775.00
2019-01-24T09:01:14.689Z,96784.00
2019-01-24T09:03:44.044Z,96790.00
2019-01-24T09:06:13.423Z,96784.00
2019-01-24T09:08:42.811Z,96785.00
2019-01-24T09:11:12.179Z,96781.00
2019-01-24T09:13:41.543Z,96794.00
2019-01-24T09:16:10.926Z,96792.00
2019-01-24T09:18:40.294Z,96789.00
2019-01-24T09:21:10.523Z,96792.00
2019-01-24T09:23:39.885Z,96791.00
2019-01-24T09:26:09.262Z,96799.00
2019-01-24T09:28:38.642Z,96804.00
2019-01-24T09:31:08.012Z,96804.00
2019-01-24T09:33:37.369Z,96826.00
2019-01-24T09:36:06.833Z,96822.00
2019-01-24T09:38:36.209Z,96812.00
2019-01-24T09:41:05.646Z,96825.00
2019-01-24T09:43:35.566Z,96818.00
2019-01-24T09:46:04.986Z,96845.00
2019-01-24T09:48:34.333Z,96825.00
2019-01-24T09:51:03.710Z,96829.00
2019-01-24T09:53:33.845Z,96825.00
2019-01-24T09:56:03.216Z,96832.00
2019-01-24T09:58:32.611Z,96838.00
2019-01-24T10:01:01.980Z,96839.00
2019-01-24T10:03:31.333Z,96833.00
2019-01-24T10:06:01.031Z,96839.00
2019-01-24T10:08:30.429Z,96839.00
2019-01-24T10:10:59.762Z,96838.00
2019-01-24T10:13:29.160Z,96835.00
2019-01-24T10:15:58.521Z,96835.00
2019-01-24T10:18:27.878Z,96851.00
2019-01-24T10:20:57.299Z,96840.00
2019-01-24T10:23:26.723Z,96833.00
2019-01-24T10:25:56.067Z,96845.00
2019-01-24T10:28:25.527Z,96838.00
2019-01-24T10:30:54.901Z,96830.00
2019-01-24T10:33:24.262Z,96837.00
2019-01-24T10:35:53.624Z,96844.00
2019-01-24T10:38:23.011Z,96829.00
2019-01-24T10:40:52.359Z,96836.00
2019-01-24T10:43:21.730Z,96829.00
2019-01-24T10:45:52.169Z,96833.00
2019-01-24T10:48:21.525Z,96827.00
2019-01-24T10:50:51.535Z,96840.00
2019-01-24T10:53:20.890Z,96834.00
2019-01-24T10:55:50.250Z,96833.00
2019-01-24T10:58:19.649Z,96834.00
2019-01-24T11:00:48.978Z,96818.00
2019-01-24T11:03:18.472Z,96834.00
2019-01-24T11:05:47.932Z,96815.00
2019-01-24T11:08:17.359Z,96828.00
2019-01-24T11:10:46.729Z,96825.00
2019-01-24T11:13:17.117Z,96813.00
2019-01-24T11:15:46.481Z,96822.00
2019-01-24T11:18:15.844Z,96805.00
2019-01-24T11:20:45.288Z,96794.00
2019-01-24T11:23:14.637Z,96804.00
2019-01-24T11:25:44.005Z,96809.00
2019-01-24T11:28:13.395Z,96814.00
2019-01-24T11:30:42.752Z,96808.00
2019-01-24T11:33:12.122Z,96815.00
2019-01-24T11:35:41.734Z,96811.00
2019-01-24T11:38:11.239Z,96819.00
2019-01-24T11:40:40.596Z,96819.00
2019-01-24T11:43:09.988Z,96814.00
2019-01-24T11:45:41.554Z,96821.00
2019-01-24T11:48:11.698Z,96812.00
2019-01-24T11:50:41.076Z,96815.00
2019-01-24T11:53:10.437Z,96811.00
2019-01-24T11:55:39.799Z,96798.00
2019-01-24T11:58:09.673Z,96809.00
2019-01-24T12:00:41.578Z,96810.00
2019-01-24T12:03:30.292Z,96803.00
2019-01-24T12:05:59.652Z,96809.00
2019-01-24T12:08:29.007Z,96804.00
2019-01-24T12:10:58.414Z,96800.00
2019-01-24T12:13:27.782Z,96834.00
2019-01-24T12:15:57.139Z,96824.00
2019-01-24T12:18:26.539Z,96827.00
2019-01-24T12:20:55.900Z,96816.00
2019-01-24T12:23:26.200Z,96833.00
2019-01-24T12:25:55.611Z,96828.00
2019-01-24T12:28:24.966Z,96843.00
2019-01-24T12:30:54.333Z,96844.00
2019-01-24T12:33:23.724Z,96836.00
2019-01-24T12:35:53.075Z,96838.00
2019-01-24T12:38:22.443Z,96840.00
2019-01-24T12:40:52.199Z,96844.00
2019-01-24T12:43:21.543Z,96847.00
2019-01-24T12:45:50.915Z,96843.00
2019-01-24T12:48:20.298Z,96843.00
2019-01-24T12:50:50.185Z,96839.00
2019-01-24T12:53:19.542Z,96846.00
2019-01-24T12:55:48.928Z,96841.00
2019-01-24T12:58:18.287Z,96850.00
2019-01-24T13:00:47.641Z,96841.00
2019-01-24T13:03:17.061Z,96850.00
2019-01-24T13:05:46.410Z,96847.00
2019-01-24T13:08:15.772Z,96850.00
2019-01-24T13:10:45.156Z,96850.00
2019-01-24T13:13:14.512Z,96847.00
2019-01-24T13:15:43.934Z,96848.00
2019-01-24T13:18:13.313Z,96835.00
2019-01-24T13:20:42.683Z,96855.00
2019-01-24T13:23:12.040Z,96860.00
2019-01-24T13:25:42.225Z,96865.00
2019-01-24T13:28:11.576Z,96854.00
2019-01-24T13:30:40.933Z,96850.00
2019-01-24T13:33:10.300Z,96847.00
2019-01-24T13:35:39.663Z,96858.00
2019-01-24T13:38:09.215Z,96851.00
2019-01-24T13:40:38.575Z,96855.00
2019-01-24T13:43:08.156Z,96866.00
2019-01-24T13:45:38.013Z,96865.00
2019-01-24T13:48:07.466Z,96862.00
2019-01-24T13:50:36.830Z,96854.00
2019-01-24T13:53:07.191Z,96865.00
2019-01-24T13:55:36.568Z,96846.00
2019-01-24T13:58:07.717Z,96844.00
2019-01-24T14:00:37.660Z,96860.00
2019-01-24T14:03:18.178Z,96842.00
2019-01-24T14:05:47.608Z,96853.00
2019-01-24T14:08:16.967Z,96850.00
2019-01-24T14:10:46.345Z,96857.00
2019-01-24T14:13:15.712Z,96848.00
2019-01-24T14:15:45.080Z,96857.00
2019-01-24T14:18:14.455Z,96859.00
2019-01-24T14:20:44.139Z,96878.00
2019-01-24T14:23:13.502Z,96862.00
2019-01-24T14:25:42.918Z,96853.00
2019-01-24T14:28:12.347Z,96863.00
2019-01-24T14:30:41.700Z,96863.00
2019-01-24T14:33:11.105Z,96889.00
2019-01-24T14:35:40.433Z,96885.00
2019-01-24T14:38:10.169Z,96883.00
2019-01-24T14:40:39.550Z,96901.00
2019-01-24T14:43:08.902Z,96900.00
2019-01-24T14:45:38.254Z,96900.00
2019-01-24T14:48:08.118Z,96894.00
2019-01-24T14:50:38.498Z,96878.00
2019-01-24T14:53:08.039Z,96889.00
2019-01-24T14:55:38.429Z,96887.00
2019-01-24T14:58:07.852Z,96892.00
2019-01-24T15:00:41.993Z,96898.00
2019-01-24T15:03:11.457Z,96905.00
2019-01-24T15:05:40.817Z,96914.00
2019-01-24T15:08:10.312Z,96924.00
2019-01-24T15:10:39.667Z,96920.00
2019-01-24T15:13:09.105Z,96925.00
2019-01-24T15:15:38.542Z,96923.00
2019-01-24T15:18:08.114Z,96925.00
2019-01-24T15:20:37.465Z,96925.00
2019-01-24T15:23:06.824Z,96911.00
2019-01-24T15:25:36.245Z,96921.00
2019-01-24T15:28:05.683Z,96921.00
2019-01-24T15:30:35.043Z,96926.00
2019-01-24T15:33:04.478Z,96926.00
2019-01-24T15:35:33.848Z,96921.00
2019-01-24T15:38:03.207Z,96926.00
2019-01-24T15:40:34.521Z,96929.00
2019-01-24T15:43:04.426Z,96949.00
2019-01-24T15:45:33.850Z,96952.00
2019-01-24T15:48:03.393Z,96953.00
2019-01-24T15:50:32.760Z,96935.00
2019-01-24T15:53:02.153Z,96941.00
2019-01-24T15:55:31.512Z,96939.00
2019-01-24T15:58:01.245Z,96932.00
2019-01-24T16:00:34.077Z,96952.00
2019-01-24T16:03:03.562Z,96965.00
2019-01-24T16:05:32.951Z,96954.00
2019-01-24T16:08:02.303Z,96957.00
2019-01-24T16:10:32.903Z,96955.00
2019-01-24T16:13:02.288Z,96954.00
2019-01-24T16:15:35.710Z,96959.00
2019-01-24T16:18:08.017Z,96953.00
2019-01-24T16:20:37.713Z,96981.00
2019-01-24T16:23:07.075Z,96980.00
2019-01-24T16:25:37.617Z,96974.00
2019-01-24T16:28:07.351Z,96972.00
2019-01-24T16:30:37.710Z,96978.00
2019-01-24T16:33:08.604Z,96993.00
2019-01-24T16:35:38.180Z,96989.00
2019-01-24T16:38:09.479Z,96988.00
2019-01-24T16:40:38.749Z,97013.00
2019-01-24T16:43:08.161Z,96999.00
2019-01-24T16:45:37.549Z,97012.00
2019-01-24T16:48:07.265Z,97001.00
2019-01-24T16:50:36.634Z,97014.00
2019-01-24T16:53:06.125Z,97006.00
2019-01-24T16:55:35.516Z,97004.00
2019-01-24T16:58:05.721Z,97005.00
2019-01-24T17:00:40.124Z,97008.00
2019-01-24T17:03:09.553Z,97001.00
2019-01-24T17:05:39.003Z,97001.00
2019-01-24T17:08:08.522Z,97011.00
2019-01-24T17:10:37.984Z,97017.00
2019-01-24T17:13:07.876Z,97017.00
2019-01-24T17:15:37.222Z,97010.00
2019-01-24T17:18:06.876Z,97009.00
2019-01-24T17:20:36.225Z,97010.00
2019-01-24T17:23:06.281Z,97010.00
2019-01-24T17:25:35.744Z,97017.00
2019-01-24T17:28:05.909Z,97017.00
2019-01-24T17:30:35.434Z,97028.00
2019-01-24T17:33:06.626Z,97030.00
2019-01-24T17:35:36.056Z,97018.00
2019-01-24T17:38:05.629Z,97016.00
2019-01-24T17:40:36.618Z,97018.00
2019-01-24T17:43:06.799Z,97010.00
2019-01-24T17:45:36.164Z,97018.00
2019-01-24T17:48:06.577Z,97024.00
2019-01-24T17:50:35.961Z,97018.00
2019-01-24T17:53:05.619Z,97022.00
2019-01-24T17:55:42.335Z,97030.00
2019-01-24T17:58:11.785Z,97032.00
2019-01-24T18:00:42.992Z,97027.00
2019-01-24T18:03:12.673Z,97034.00
2019-01-24T18:05:42.026Z,97038.00
2019-01-24T18:08:11.376Z,97032.00
2019-01-24T18:10:40.783Z,97033.00
2019-01-24T18:13:10.133Z,97046.00
2019-01-24T18:15:39.646Z,97042.00
2019-01-24T18:18:13.046Z,97036.00
2019-01-24T18:20:42.512Z,97048.00
2019-01-24T18:23:12.103Z,97049.00
2019-01-24T18:25:41.583Z,97041.00
2019-01-24T18:28:12.244Z,97059.00
2019-01-24T18:30:42.117Z,97053.00
2019-01-24T18:33:11.770Z,97067.00
2019-01-24T18:35:41.137Z,97055.00
2019-01-24T18:38:10.810Z,97065.00
2019-01-24T18:40:40.888Z,97062.00
2019-01-24T18:43:15.051Z,97079.00
2019-01-24T18:45:51.444Z,97068.00
2019-01-24T18:48:20.820Z,97063.00
2019-01-24T18:50:51.039Z,97060.00
2019-01-24T18:53:20.472Z,97076.00
2019-01-24T18:55:49.826Z,97061.00
2019-01-24T18:58:19.188Z,97086.00
2019-01-24T19:00:48.559Z,97090.00
2019-01-24T19:03:17.972Z,97091.00
2019-01-24T19:05:48.261Z,97083.00
2019-01-24T19:08:18.055Z,97098.00
2019-01-24T19:10:47.465Z,97093.00
2019-01-24T19:13:16.801Z,97098.00
2019-01-24T19:15:46.163Z,97113.00
2019-01-24T19:18:15.572Z,97109.00
2019-01-24T19:20:44.991Z,97117.00
2019-01-24T19:23:14.462Z,97109.00
2019-01-24T19:25:43.884Z,97112.00
2019-01-24T19:28:13.253Z,97118.00
2019-01-24T19:30:42.773Z,97116.00
2019-01-24T19:33:12.138Z,97125.00
2019-01-24T19:35:41.507Z,97130.00
2019-01-24T19:38:10.965Z,97143.00
2019-01-24T19:40:40.336Z,97131.00
2019-01-24T19:43:09.767Z,97130.00
2019-01-24T19:45:39.251Z,97140.00
2019-01-24T19:48:08.744Z,97133.00
2019-01-24T19:50:38.106Z,97132.00
2019-01-24T19:53:07.866Z,97134.00
2019-01-24T19:55:37.756Z,97119.00
2019-01-24T19:58:07.497Z,97135.00
2019-01-24T20:00:37.040Z,97136.00
2019-01-24T20:03:06.557Z,97131.00
2019-01-24T20:05:35.924Z,97144.00
2019-01-24T20:08:07.142Z,97139.00
2019-01-24T20:10:36.505Z,97127.00
2019-01-24T20:13:06.410Z,97133.00
2019-01-24T20:15:35.772Z,97119.00
2019-01-24T20:18:06.848Z,97128.00
2019-01-24T20:20:37.634Z,97137.00
2019-01-24T20:23:07.196Z,97138.00
2019-01-24T20:25:36.639Z,97147.00
2019-01-24T20:28:06.122Z,97126.00
2019-01-24T20:30:36.056Z,97130.00
2019-01-24T20:33:06.279Z,97147.00
2019-01-24T20:35:42.841Z,97138.00
2019-01-24T20:38:13.050Z,97133.00
2019-01-24T20:40:42.419Z,97139.00
2019-01-24T20:43:13.631Z,97142.00
2019-01-24T20:45:42.935Z,97143.00
2019-01-24T20:48:12.294Z,97137.00
2019-01-24T20:50:41.774Z,97135.00
2019-01-24T20:53:11.229Z,97139.00
2019-01-24T20:55:40.737Z,97130.00
2019-01-24T20:58:10.113Z,97146.00
2019-01-24T21:00:39.481Z,97137.00
2019-01-24T21:03:08.868Z,97129.00
2019-01-24T21:05:39.014Z,97123.00
2019-01-24T21:08:08.455Z,97135.00
2019-01-24T21:10:39.107Z,97121.00
2019-01-24T21:13:09.124Z,97127.00
2019-01-24T21:15:38.512Z,97126.00
2019-01-24T21:18:08.100Z,97125.00
2019-01-24T21:20:37.599Z,97133.00
2019-01-24T21:23:07.008Z,97130.00
2019-01-24T21:25:36.363Z,97149.00
2019-01-24T21:28:06.067Z,97137.00
2019-01-24T21:30:37.622Z,97150.00
2019-01-24T21:33:08.138Z,97156.00
2019-01-24T21:35:37.537Z,97148.00
2019-01-24T21:38:07.744Z,97144.00
2019-01-24T21:40:37.206Z,97149.00
2019-01-24T21:43:06.846Z,97136.00
2019-01-24T21:45:38.393Z,97137.00
2019-01-24T21:48:08.797Z,97140.00
2019-01-24T21:50:38.645Z,97132.00
2019-01-24T21:53:08.151Z,97153.00
2019-01-24T21:55:37.686Z,97150.00
2019-01-24T21:58:08.174Z,97161.00
2019-01-24T22:00:37.676Z,97160.00
2019-01-24T22:03:07.412Z,97168.00
2019-01-24T22:05:37.021Z,97148.00
2019-01-24T22:08:06.499Z,97153.00
2019-01-24T22:10:35.931Z,97160.00
2019-01-24T22:13:06.813Z,97162.00
2019-01-24T22:15:36.351Z,97156.00
2019-01-24T22:18:06.138Z,97165.00
2019-01-24T22:20:35.589Z,97171.00
2019-01-24T22:23:05.489Z,97157.00
2019-01-24T22:25:35.903Z,97165.00
2019-01-24T22:28:06.409Z,97170.00
2019-01-24T22:30:43.637Z,97164.00
2019-01-24T22:33:13.378Z,97162.00
2019-01-24T22:35:42.729Z,97162.00
2019-01-24T22:38:12.096Z,97168.00
2019-01-24T22:40:41.491Z,97169.00
2019-01-24T22:43:10.881Z,97168.00
2019-01-24T22:45:40.319Z,97164.00
2019-01-24T22:48:09.846Z,97162.00
2019-01-24T22:50:39.211Z,97181.00
2019-01-24T22:53:08.594Z,97181.00
2019-01-24T22:55:38.367Z,97187.00
2019-01-24T22:58:08.191Z,97198.00
2019-01-24T23:00:54.218Z,97183.00
2019-01-24T23:03:31.918Z,97187.00
2019-01-24T23:06:01.373Z,97170.00
2019-01-24T23:08:30.755Z,97177.00
2019-01-24T23:11:00.184Z,97181.00
2019-01-24T23:13:29.589Z,97175.00
2019-01-24T23:15:59.607Z,97184.00
2019-01-24T23:18:29.044Z,97184.00
2019-01-24T23:20:58.441Z,97172.00
2019-01-24T23:23:27.914Z,97180.00
2019-01-24T23:25:57.675Z,97173.00
2019-01-24T23:28:27.039Z,97177.00
2019-01-24T23:30:56.415Z,97162.00
2019-01-24T23:33:25.798Z,97163.00
2019-01-24T23:35:55.886Z,97171.00
2019-01-24T23:38:25.326Z,97177.00
2019-01-24T23:40:54.683Z,97169.00
2019-01-24T23:43:24.077Z,97182.00
2019-01-24T23:45:53.430Z,97187.00
2019-01-24T23:48:22.809Z,97177.00
2019-01-24T23:50:52.293Z,97183.00
2019-01-24T23:53:21.662Z,97185.00
2019-01-24T23:55:51.050Z,97182.00
2019-01-24T23:58:20.476Z,97177.00
